createdAt,value
2023-05-14T00:02:26.739Z,8.20
2023-05-14T00:04:54.424Z,9.20
2023-05-14T00:07:22.063Z,9.60
2023-05-14T00:09:49.685Z,8.20
2023-05-14T00:12:17.295Z,8.30
2023-05-14T00:14:44.919Z,7.50
2023-05-14T00:17:12.518Z,8.10
2023-05-14T00:19:41.901Z,9.10
2023-05-14T00:22:09.661Z,8.30
2023-05-14T00:24:37.369Z,7.90
2023-05-14T00:27:05.274Z,7.50
2023-05-14T00:29:32.924Z,7.40
2023-05-14T00:32:00.869Z,6.80
2023-05-14T00:34:28.574Z,8.00
2023-05-14T00:36:56.171Z,7.70
2023-05-14T00:39:23.803Z,7.30
2023-05-14T00:41:51.521Z,6.90
2023-05-14T00:44:19.095Z,7.30
2023-05-14T00:46:47.230Z,7.30
2023-05-14T00:49:15.917Z,7.40
2023-05-14T00:51:46.846Z,7.30
2023-05-14T00:54:16.736Z,6.50
2023-05-14T00:56:46.583Z,7.90
2023-05-14T00:59:14.251Z,7.20
2023-05-14T01:01:42.475Z,7.50
2023-05-14T01:04:11.645Z,7.50
2023-05-14T01:06:55.198Z,7.00
2023-05-14T01:09:32.423Z,7.50
2023-05-14T01:12:32.015Z,7.30
2023-05-14T01:15:18.953Z,7.40
2023-05-14T01:17:57.807Z,8.40
2023-05-14T01:20:26.883Z,7.70
2023-05-14T01:22:54.523Z,7.00
2023-05-14T01:25:22.115Z,7.60
2023-05-14T01:27:52.680Z,8.10
2023-05-14T01:30:31.862Z,7.90
2023-05-14T01:33:06.166Z,8.20
2023-05-14T01:35:33.969Z,9.00
2023-05-14T01:38:04.951Z,7.70
2023-05-14T01:40:34.069Z,7.90
2023-05-14T01:43:02.452Z,7.30
2023-05-14T01:45:30.606Z,7.90
2023-05-14T01:47:58.410Z,8.00
2023-05-14T01:50:26.323Z,7.40
2023-05-14T01:52:56.392Z,7.90
2023-05-14T01:55:25.466Z,8.60
2023-05-14T01:57:53.607Z,8.10
2023-05-14T02:00:23.878Z,8.30
2023-05-14T02:02:51.865Z,8.20
2023-05-14T02:05:19.684Z,7.60
2023-05-14T02:07:47.320Z,8.30
2023-05-14T02:10:14.940Z,8.10
2023-05-14T02:12:42.591Z,7.30
2023-05-14T02:15:11.105Z,8.50
2023-05-14T02:17:38.844Z,7.80
2023-05-14T02:20:07.626Z,8.40
2023-05-14T02:22:35.398Z,8.50
2023-05-14T02:25:03.186Z,8.20
2023-05-14T02:27:30.813Z,8.20
2023-05-14T02:30:00.755Z,8.40
2023-05-14T02:32:28.683Z,8.60
2023-05-14T02:34:56.451Z,8.30
2023-05-14T02:37:24.058Z,8.70
2023-05-14T02:39:53.298Z,9.00
2023-05-14T02:42:23.591Z,7.80
2023-05-14T02:44:52.228Z,9.30
2023-05-14T02:47:19.898Z,8.10
2023-05-14T02:49:47.544Z,8.20
2023-05-14T02:52:15.140Z,8.40
2023-05-14T02:54:42.995Z,8.30
2023-05-14T02:57:10.651Z,8.10
2023-05-14T02:59:38.251Z,8.30
2023-05-14T03:02:06.985Z,8.20
2023-05-14T03:04:35.256Z,8.50
2023-05-14T03:07:03.022Z,7.70
2023-05-14T03:09:30.623Z,8.20
2023-05-14T03:11:58.273Z,8.60
2023-05-14T03:14:26.001Z,7.80
2023-05-14T03:16:53.659Z,8.10
2023-05-14T03:19:21.422Z,8.20
2023-05-14T03:21:50.008Z,8.60
2023-05-14T03:24:17.604Z,9.00
2023-05-14T03:26:45.236Z,8.30
2023-05-14T03:29:12.885Z,10.70
2023-05-14T03:31:41.394Z,8.90
2023-05-14T03:34:09.249Z,8.50
2023-05-14T03:36:38.818Z,7.80
2023-05-14T03:39:09.689Z,8.10
2023-05-14T03:41:37.654Z,9.00
2023-05-14T03:44:06.233Z,8.20
2023-05-14T03:46:33.925Z,9.00
2023-05-14T03:49:01.672Z,8.80
2023-05-14T03:51:29.527Z,8.20
2023-05-14T03:54:01.056Z,8.60
2023-05-14T03:56:28.788Z,8.70
2023-05-14T03:58:56.406Z,8.50
2023-05-14T04:01:24.089Z,7.70
2023-05-14T04:03:51.894Z,7.90
2023-05-14T04:06:19.719Z,8.60
2023-05-14T04:08:47.323Z,8.20
2023-05-14T04:11:14.971Z,7.80
2023-05-14T04:13:43.045Z,8.10
2023-05-14T04:16:11.388Z,8.40
2023-05-14T04:18:39.181Z,8.30
2023-05-14T04:21:06.854Z,8.30
2023-05-14T04:23:34.520Z,7.90
2023-05-14T04:26:02.130Z,8.40
2023-05-14T04:28:29.702Z,12.50
2023-05-14T04:30:57.842Z,12.60
2023-05-14T04:33:25.515Z,10.30
2023-05-14T04:35:54.240Z,9.40
2023-05-14T04:38:21.820Z,9.20
2023-05-14T04:40:49.435Z,8.70
2023-05-14T04:43:17.474Z,7.90
2023-05-14T04:45:45.677Z,7.90
2023-05-14T04:48:13.311Z,8.30
2023-05-14T04:50:41.017Z,7.90
2023-05-14T04:53:08.671Z,8.70
2023-05-14T04:55:36.520Z,8.40
2023-05-14T04:58:04.139Z,9.10
2023-05-14T05:00:33.268Z,8.20
2023-05-14T05:03:00.996Z,7.30
2023-05-14T05:05:28.660Z,8.20
2023-05-14T05:07:56.330Z,7.70
2023-05-14T05:10:24.250Z,6.70
2023-05-14T05:12:52.231Z,7.50
2023-05-14T05:15:19.867Z,6.90
2023-05-14T05:17:47.525Z,7.30
2023-05-14T05:20:15.345Z,6.30
2023-05-14T05:22:42.957Z,6.70
2023-05-14T05:25:12.028Z,7.50
2023-05-14T05:27:39.649Z,6.90
2023-05-14T05:30:08.238Z,6.30
2023-05-14T05:32:36.719Z,6.70
2023-05-14T05:35:04.863Z,7.00
2023-05-14T05:37:33.033Z,6.00
2023-05-14T05:40:00.641Z,6.10
2023-05-14T05:42:28.294Z,6.60
2023-05-14T05:44:56.218Z,6.40
2023-05-14T05:47:24.002Z,7.10
2023-05-14T05:49:51.676Z,6.50
2023-05-14T05:52:19.476Z,6.20
2023-05-14T05:54:47.070Z,5.80
2023-05-14T05:57:14.642Z,6.10
2023-05-14T05:59:42.252Z,5.40
2023-05-14T06:02:09.884Z,6.60
2023-05-14T06:04:37.557Z,5.40
2023-05-14T06:07:05.170Z,5.70
2023-05-14T06:09:32.785Z,5.00
2023-05-14T06:12:00.543Z,5.60
2023-05-14T06:14:28.209Z,5.60
2023-05-14T06:16:55.881Z,6.00
2023-05-14T06:19:23.992Z,5.40
2023-05-14T06:21:51.621Z,5.90
2023-05-14T06:24:20.106Z,5.60
2023-05-14T06:26:49.276Z,6.40
2023-05-14T06:29:17.012Z,5.60
2023-05-14T06:31:46.425Z,4.90
2023-05-14T06:34:14.142Z,5.50
2023-05-14T06:36:41.771Z,5.10
2023-05-14T06:39:09.876Z,5.70
2023-05-14T06:41:37.501Z,5.80
2023-05-14T06:44:05.211Z,4.80
2023-05-14T06:46:32.804Z,5.60
2023-05-14T06:49:00.489Z,5.00
2023-05-14T06:51:28.133Z,5.30
2023-05-14T06:53:56.232Z,4.80
2023-05-14T06:56:23.913Z,5.10
2023-05-14T06:58:51.533Z,5.30
2023-05-14T07:01:19.132Z,4.00
2023-05-14T07:03:46.770Z,4.90
2023-05-14T07:06:14.479Z,4.70
2023-05-14T07:08:45.922Z,4.30
2023-05-14T07:11:13.843Z,4.10
2023-05-14T07:13:41.754Z,3.40
2023-05-14T07:16:12.229Z,3.80
2023-05-14T07:18:40.297Z,3.60
2023-05-14T07:21:08.012Z,3.60
2023-05-14T07:23:38.427Z,3.80
2023-05-14T07:26:06.942Z,3.60
2023-05-14T07:28:35.308Z,3.60
2023-05-14T07:31:08.666Z,4.00
2023-05-14T07:33:36.601Z,3.70
2023-05-14T07:36:05.219Z,3.00
2023-05-14T07:38:32.879Z,2.60
2023-05-14T07:41:00.480Z,3.20
2023-05-14T07:43:28.119Z,3.40
2023-05-14T07:45:56.399Z,2.60
2023-05-14T07:48:24.044Z,3.60
2023-05-14T07:50:51.785Z,2.60
2023-05-14T07:53:19.361Z,2.40
2023-05-14T07:55:49.109Z,2.50
2023-05-14T07:58:16.721Z,2.80
2023-05-14T08:00:44.445Z,2.70
2023-05-14T08:03:12.203Z,2.70
2023-05-14T08:05:40.094Z,2.50
2023-05-14T08:08:07.732Z,2.30
2023-05-14T08:10:35.640Z,2.60
2023-05-14T08:13:03.426Z,2.80
2023-05-14T08:15:31.071Z,2.10
2023-05-14T08:18:03.399Z,2.40
2023-05-14T08:20:31.285Z,3.00
2023-05-14T08:22:58.950Z,2.40
2023-05-14T08:25:26.588Z,2.50
2023-05-14T08:27:54.250Z,2.20
2023-05-14T08:30:22.901Z,1.90
2023-05-14T08:32:51.733Z,2.80
2023-05-14T08:35:19.557Z,2.20
2023-05-14T08:37:47.313Z,2.40
2023-05-14T08:40:16.536Z,2.60
2023-05-14T08:42:45.140Z,3.10
2023-05-14T08:45:21.160Z,2.60
2023-05-14T08:47:51.054Z,2.80
2023-05-14T08:50:23.538Z,2.50
2023-05-14T08:52:52.843Z,2.40
2023-05-14T08:55:20.962Z,2.40
2023-05-14T08:57:48.652Z,2.30
2023-05-14T09:00:16.477Z,2.60
2023-05-14T09:02:44.771Z,2.90
2023-05-14T09:05:13.129Z,2.30
2023-05-14T09:07:41.284Z,2.80
2023-05-14T09:10:10.374Z,2.70
2023-05-14T09:12:37.956Z,2.50
2023-05-14T09:15:06.599Z,2.50
2023-05-14T09:17:34.666Z,2.50
2023-05-14T09:20:03.998Z,2.20
2023-05-14T09:22:34.526Z,2.40
2023-05-14T09:25:04.685Z,2.40
2023-05-14T09:27:33.548Z,2.40
2023-05-14T09:30:17.489Z,2.90
2023-05-14T09:32:46.032Z,2.90
2023-05-14T09:35:22.220Z,3.10
2023-05-14T09:37:52.347Z,2.10
2023-05-14T09:40:22.323Z,2.20
2023-05-14T09:42:50.729Z,2.50
2023-05-14T09:45:18.432Z,1.90
2023-05-14T09:47:46.363Z,2.50
2023-05-14T09:50:14.238Z,2.60
2023-05-14T09:52:42.466Z,2.20
2023-05-14T09:55:10.116Z,2.70
2023-05-14T09:57:37.884Z,2.80
2023-05-14T10:00:06.650Z,2.10
2023-05-14T10:02:38.872Z,2.40
2023-05-14T10:05:07.953Z,2.20
2023-05-14T10:07:48.389Z,2.50
2023-05-14T10:10:18.973Z,2.40
2023-05-14T10:12:52.778Z,2.30
2023-05-14T10:15:49.030Z,1.70
2023-05-14T10:18:20.251Z,1.90
2023-05-14T10:20:53.584Z,2.20
2023-05-14T10:23:21.770Z,2.00
2023-05-14T10:25:49.989Z,2.30
2023-05-14T10:28:17.972Z,2.40
2023-05-14T10:30:49.876Z,2.40
2023-05-14T10:33:18.698Z,2.10
2023-05-14T10:36:06.148Z,2.20
2023-05-14T10:38:35.729Z,2.20
2023-05-14T10:41:21.340Z,2.70
2023-05-14T10:43:50.360Z,2.20
2023-05-14T10:46:18.157Z,2.60
2023-05-14T10:48:45.817Z,2.00
2023-05-14T10:51:16.774Z,1.90
2023-05-14T10:53:45.099Z,2.00
2023-05-14T10:56:14.323Z,2.70
2023-05-14T10:58:44.316Z,2.20
2023-05-14T11:01:13.191Z,2.00
2023-05-14T11:03:46.062Z,2.40
2023-05-14T11:06:15.357Z,2.10
2023-05-14T11:08:44.356Z,2.60
2023-05-14T11:11:12.090Z,2.10
2023-05-14T11:13:41.412Z,2.60
2023-05-14T11:16:21.625Z,2.20
2023-05-14T11:19:03.330Z,2.30
2023-05-14T11:21:32.602Z,2.10
2023-05-14T11:24:01.157Z,2.20
2023-05-14T11:26:28.910Z,3.20
2023-05-14T11:28:56.715Z,2.70
2023-05-14T11:31:25.389Z,1.80
2023-05-14T11:33:53.544Z,2.10
2023-05-14T11:36:21.893Z,2.00
2023-05-14T11:38:51.346Z,2.30
2023-05-14T11:41:21.398Z,2.30
2023-05-14T11:43:49.370Z,2.50
2023-05-14T11:46:21.669Z,2.20
2023-05-14T11:48:49.544Z,2.70
2023-05-14T11:51:17.305Z,2.90
2023-05-14T11:53:45.120Z,2.60
2023-05-14T11:56:12.834Z,2.40
2023-05-14T11:58:40.620Z,2.50
2023-05-14T12:01:13.614Z,2.20
2023-05-14T12:03:42.221Z,2.40
2023-05-14T12:06:10.132Z,2.20
2023-05-14T12:08:37.783Z,2.30
2023-05-14T12:11:05.468Z,2.30
2023-05-14T12:13:33.441Z,2.00
2023-05-14T12:16:02.398Z,2.50
2023-05-14T12:18:32.400Z,2.30
2023-05-14T12:21:04.998Z,2.90
2023-05-14T12:23:33.055Z,2.20
2023-05-14T12:26:06.839Z,2.40
2023-05-14T12:28:38.493Z,2.80
2023-05-14T12:31:06.926Z,2.50
2023-05-14T12:33:34.760Z,3.00
2023-05-14T12:36:13.554Z,2.60
2023-05-14T12:38:49.904Z,2.80
2023-05-14T12:41:18.097Z,2.60
2023-05-14T12:43:49.240Z,2.70
2023-05-14T12:46:17.005Z,2.50
2023-05-14T12:48:44.854Z,2.30
2023-05-14T12:51:13.233Z,1.90
2023-05-14T12:53:41.281Z,2.10
2023-05-14T12:56:09.572Z,2.10
2023-05-14T12:58:37.367Z,2.10
2023-05-14T13:01:05.925Z,2.10
2023-05-14T13:03:33.686Z,2.40
2023-05-14T13:06:01.370Z,2.10
2023-05-14T13:08:28.994Z,1.90
2023-05-14T13:10:56.763Z,2.20
2023-05-14T13:13:24.480Z,3.20
2023-05-14T13:15:53.204Z,2.50
2023-05-14T13:18:20.955Z,2.00
2023-05-14T13:20:48.715Z,2.40
2023-05-14T13:23:16.326Z,2.30
2023-05-14T13:25:43.928Z,3.00
2023-05-14T13:28:12.690Z,2.70
2023-05-14T13:30:40.304Z,2.10
2023-05-14T13:33:08.057Z,2.30
2023-05-14T13:35:35.901Z,1.90
2023-05-14T13:38:03.503Z,2.00
2023-05-14T13:40:31.131Z,2.50
2023-05-14T13:42:58.710Z,2.10
2023-05-14T13:45:26.420Z,2.30
2023-05-14T13:47:56.440Z,2.50
2023-05-14T13:50:24.113Z,2.10
2023-05-14T13:52:52.115Z,2.00
2023-05-14T13:55:19.709Z,2.40
2023-05-14T13:57:47.328Z,2.30
2023-05-14T14:00:15.666Z,2.00
2023-05-14T14:02:43.335Z,2.40
2023-05-14T14:05:10.979Z,3.00
2023-05-14T14:07:40.455Z,2.60
2023-05-14T14:10:09.085Z,2.50
2023-05-14T14:12:37.112Z,2.50
2023-05-14T14:15:06.091Z,2.40
2023-05-14T14:17:34.885Z,2.30
2023-05-14T14:20:05.112Z,2.30
2023-05-14T14:22:32.966Z,2.90
2023-05-14T14:25:00.866Z,2.30
2023-05-14T14:27:30.963Z,2.60
2023-05-14T14:29:58.585Z,2.20
2023-05-14T14:32:26.337Z,2.20
2023-05-14T14:34:54.021Z,2.30
2023-05-14T14:37:23.228Z,2.50
2023-05-14T14:39:51.079Z,2.40
2023-05-14T14:42:18.727Z,2.20
2023-05-14T14:44:46.306Z,2.40
2023-05-14T14:47:14.039Z,2.30
2023-05-14T14:49:41.670Z,2.10
2023-05-14T14:52:09.300Z,2.10
2023-05-14T14:54:36.899Z,2.30
2023-05-14T14:57:04.812Z,2.50
2023-05-14T14:59:32.410Z,2.30
2023-05-14T15:02:00.066Z,2.00
2023-05-14T15:04:28.471Z,2.80
2023-05-14T15:06:56.051Z,2.40
2023-05-14T15:09:23.628Z,2.10
2023-05-14T15:11:51.293Z,2.40
2023-05-14T15:14:19.055Z,1.70
2023-05-14T15:16:49.523Z,2.20
2023-05-14T15:19:18.586Z,1.80
2023-05-14T15:21:46.436Z,1.90
2023-05-14T15:24:14.091Z,2.10
2023-05-14T15:26:41.884Z,2.20
2023-05-14T15:29:09.583Z,2.60
2023-05-14T15:31:37.286Z,2.70
2023-05-14T15:34:05.320Z,2.30
2023-05-14T15:36:32.992Z,2.00
2023-05-14T15:39:00.671Z,2.20
2023-05-14T15:41:28.760Z,1.80
2023-05-14T15:43:58.092Z,2.70
2023-05-14T15:46:26.600Z,1.70
2023-05-14T15:48:54.204Z,2.30
2023-05-14T15:51:21.810Z,2.20
2023-05-14T15:53:49.546Z,2.10
2023-05-14T15:56:17.158Z,2.20
2023-05-14T15:58:44.736Z,2.40
2023-05-14T16:01:12.700Z,2.10
2023-05-14T16:03:40.665Z,2.00
2023-05-14T16:06:08.532Z,2.30
2023-05-14T16:08:36.105Z,2.10
2023-05-14T16:11:03.883Z,2.60
2023-05-14T16:13:31.597Z,2.20
2023-05-14T16:15:59.636Z,2.20
2023-05-14T16:18:27.392Z,2.10
2023-05-14T16:20:56.214Z,2.50
2023-05-14T16:23:23.807Z,2.20
2023-05-14T16:25:51.510Z,2.20
2023-05-14T16:28:19.152Z,2.50
2023-05-14T16:30:46.811Z,2.40
2023-05-14T16:33:14.452Z,2.20
2023-05-14T16:35:42.868Z,2.30
2023-05-14T16:38:10.557Z,2.10
2023-05-14T16:40:38.163Z,2.30
2023-05-14T16:43:06.096Z,2.50
2023-05-14T16:45:34.887Z,2.30
2023-05-14T16:48:03.595Z,3.30
2023-05-14T16:50:31.404Z,2.30
2023-05-14T16:52:59.025Z,2.50
2023-05-14T16:55:26.688Z,2.60
2023-05-14T16:57:54.362Z,2.20
2023-05-14T17:00:22.034Z,2.10
2023-05-14T17:02:50.992Z,2.80
2023-05-14T17:05:18.664Z,2.70
2023-05-14T17:07:46.413Z,2.20
2023-05-14T17:10:14.000Z,2.20
2023-05-14T17:12:41.574Z,2.50
2023-05-14T17:15:08.992Z,2.70
2023-05-14T17:17:36.753Z,2.30
2023-05-14T17:20:08.062Z,2.90
2023-05-14T17:22:36.030Z,2.40
2023-05-14T17:25:03.910Z,2.20
2023-05-14T17:27:33.189Z,2.90
2023-05-14T17:30:01.277Z,2.40
2023-05-14T17:32:29.732Z,2.60
2023-05-14T17:34:57.800Z,2.40
2023-05-14T17:37:26.716Z,3.00
2023-05-14T17:39:54.410Z,2.80
2023-05-14T17:42:22.069Z,2.60
2023-05-14T17:44:49.693Z,2.80
2023-05-14T17:47:20.434Z,3.10
2023-05-14T17:49:48.075Z,2.80
2023-05-14T17:52:15.653Z,3.20
2023-05-14T17:54:43.334Z,2.60
2023-05-14T17:57:11.086Z,2.50
2023-05-14T17:59:38.728Z,3.00
2023-05-14T18:02:07.554Z,2.70
2023-05-14T18:04:35.513Z,2.40
2023-05-14T18:07:03.252Z,3.30
2023-05-14T18:09:30.962Z,2.60
2023-05-14T18:11:58.558Z,2.70
2023-05-14T18:14:26.230Z,3.30
2023-05-14T18:16:55.627Z,3.00
2023-05-14T18:19:23.802Z,3.10
2023-05-14T18:21:51.441Z,3.40
2023-05-14T18:24:19.037Z,3.40
2023-05-14T18:26:46.697Z,3.20
2023-05-14T18:29:14.399Z,3.10
2023-05-14T18:31:42.045Z,3.50
2023-05-14T18:34:09.743Z,3.70
2023-05-14T18:36:37.704Z,5.00
2023-05-14T18:39:05.317Z,5.10
2023-05-14T18:41:32.899Z,5.70
2023-05-14T18:44:01.890Z,5.90
2023-05-14T18:46:29.967Z,5.10
2023-05-14T18:48:57.660Z,6.20
2023-05-14T18:51:25.316Z,7.10
2023-05-14T18:53:52.903Z,6.80
2023-05-14T18:56:21.521Z,6.80
2023-05-14T18:58:49.213Z,7.30
2023-05-14T19:01:16.838Z,9.90
2023-05-14T19:03:44.671Z,9.90
2023-05-14T19:06:12.488Z,14.70
2023-05-14T19:08:40.094Z,20.70
2023-05-14T19:11:07.907Z,26.40
2023-05-14T19:13:35.596Z,19.80
2023-05-14T19:16:03.395Z,15.00
2023-05-14T19:18:31.073Z,8.70
2023-05-14T19:20:58.996Z,6.40
2023-05-14T19:23:26.630Z,4.80
2023-05-14T19:25:54.325Z,4.90
2023-05-14T19:28:22.213Z,4.30
2023-05-14T19:30:51.053Z,3.60
2023-05-14T19:33:19.061Z,3.80
2023-05-14T19:35:47.358Z,3.90
2023-05-14T19:38:15.183Z,3.70
2023-05-14T19:40:43.750Z,3.80
2023-05-14T19:43:12.892Z,3.40
2023-05-14T19:45:42.587Z,3.90
2023-05-14T19:48:12.344Z,5.20
2023-05-14T19:50:41.345Z,4.80
2023-05-14T19:53:09.005Z,4.40
2023-05-14T19:55:36.998Z,4.30
2023-05-14T19:58:04.881Z,7.30
2023-05-14T20:00:32.592Z,7.50
2023-05-14T20:03:00.883Z,8.30
2023-05-14T20:05:28.896Z,13.50
2023-05-14T20:07:56.583Z,14.20
2023-05-14T20:10:24.477Z,8.80
2023-05-14T20:12:52.261Z,11.00
2023-05-14T20:15:19.891Z,12.30
2023-05-14T20:17:47.680Z,9.70
2023-05-14T20:20:16.571Z,9.80
2023-05-14T20:22:44.575Z,7.70
2023-05-14T20:25:12.299Z,7.50
2023-05-14T20:27:40.071Z,6.90
2023-05-14T20:30:08.299Z,6.60
2023-05-14T20:32:35.973Z,6.70
2023-05-14T20:35:04.427Z,8.00
2023-05-14T20:37:32.984Z,8.00
2023-05-14T20:40:02.229Z,5.30
2023-05-14T20:42:29.943Z,4.80
2023-05-14T20:44:57.849Z,4.20
2023-05-14T20:47:26.598Z,5.70
2023-05-14T20:49:54.384Z,4.80
2023-05-14T20:52:22.145Z,4.60
2023-05-14T20:54:49.871Z,4.90
2023-05-14T20:57:18.448Z,5.50
2023-05-14T20:59:47.362Z,5.30
2023-05-14T21:02:15.767Z,5.80
2023-05-14T21:04:43.729Z,5.20
2023-05-14T21:07:11.459Z,5.20
2023-05-14T21:09:39.060Z,5.70
2023-05-14T21:12:07.196Z,5.60
2023-05-14T21:14:34.844Z,5.00
2023-05-14T21:17:02.482Z,5.60
2023-05-14T21:19:30.148Z,6.00
2023-05-14T21:21:57.736Z,4.80
2023-05-14T21:24:25.384Z,5.80
2023-05-14T21:26:53.665Z,5.00
2023-05-14T21:29:21.491Z,5.20
2023-05-14T21:31:49.200Z,5.10
2023-05-14T21:34:16.826Z,5.50
2023-05-14T21:36:44.438Z,4.50
2023-05-14T21:39:12.089Z,5.70
2023-05-14T21:41:39.765Z,5.20
2023-05-14T21:44:07.435Z,4.70
2023-05-14T21:46:35.086Z,4.90
2023-05-14T21:49:03.062Z,4.80
2023-05-14T21:51:32.043Z,5.20
2023-05-14T21:53:59.654Z,4.60
2023-05-14T21:56:27.417Z,5.20
2023-05-14T21:58:55.979Z,5.10
2023-05-14T22:01:23.646Z,4.30
2023-05-14T22:03:51.316Z,5.00
2023-05-14T22:06:19.017Z,4.30
2023-05-14T22:08:46.634Z,5.00
2023-05-14T22:11:14.299Z,5.10
2023-05-14T22:13:41.903Z,5.00
2023-05-14T22:16:13.239Z,5.20
2023-05-14T22:21:09.192Z,5.10
2023-05-14T22:23:37.586Z,5.50
2023-05-14T22:26:05.278Z,5.30
2023-05-14T22:28:32.885Z,5.10
2023-05-14T22:31:00.683Z,5.10
2023-05-14T22:33:28.368Z,5.30
2023-05-14T22:35:56.026Z,5.60
2023-05-14T22:38:23.768Z,5.60
2023-05-14T22:40:51.464Z,5.20
2023-05-14T22:43:19.076Z,5.70
2023-05-14T22:45:46.669Z,5.50
2023-05-14T22:48:14.312Z,6.00
2023-05-14T22:50:42.014Z,5.50
2023-05-14T22:53:09.643Z,6.80
2023-05-14T22:55:37.264Z,5.30
2023-05-14T22:58:05.572Z,5.60
2023-05-14T23:00:33.211Z,5.40
2023-05-14T23:03:01.153Z,6.10
2023-05-14T23:05:28.860Z,5.50
2023-05-14T23:07:56.477Z,5.70
2023-05-14T23:10:24.157Z,5.30
2023-05-14T23:12:51.762Z,5.70
2023-05-14T23:15:19.476Z,4.90
2023-05-14T23:17:47.362Z,4.80
2023-05-14T23:20:15.044Z,4.70
2023-05-14T23:22:42.658Z,4.90
2023-05-14T23:25:10.326Z,5.40
2023-05-14T23:27:38.041Z,5.70
2023-05-14T23:30:06.806Z,5.10
2023-05-14T23:32:34.417Z,5.20
2023-05-14T23:35:02.074Z,5.00
2023-05-14T23:37:29.843Z,4.70
2023-05-14T23:39:57.500Z,5.10
2023-05-14T23:42:25.527Z,5.20
2023-05-14T23:44:53.117Z,5.00
2023-05-14T23:47:20.800Z,5.00
2023-05-14T23:49:48.539Z,5.50
2023-05-14T23:52:16.171Z,5.60
2023-05-14T23:54:43.753Z,4.40
2023-05-14T23:57:14.215Z,4.70
2023-05-14T23:59:42.375Z,5.30
